Manhattan, Pennsylvania
Current Conditions -  °F | °C
As of 4:35 PM on Saturday 22 Nov 2014 (Local Time) from KN38 Reporting Station
Overcast Overcast  
Wind Chill: 19°   Ceiling: 1100
Heat Index: 30°   Visibility: 8mi
Dew Point: 28°   Wind: 15mph
Humidity: 93%   Direction: 210°SSW
Pressure: 30.12"   Gusts: 22mph
Location:  41.6649°N, 77.5403°W
Report Text: KN38 222135Z AUTO 21013G19KT 8SM OVC011 M01/M02 A3012 RMK AO2
Loading
Personal Weather Stations






























Interactive Weather Map New forecast layout! Learn more

10-Day Weather Forecast

Advertisements
Track Severe Weather on mobile